createdAt,value
2016-11-04T00:00:23.900Z,0
2016-11-04T00:01:23.919Z,0
2016-11-04T00:02:23.930Z,0
2016-11-04T00:03:23.950Z,0
2016-11-04T00:04:24.001Z,0
2016-11-04T00:05:23.987Z,0
2016-11-04T00:06:23.997Z,0
2016-11-04T00:07:24.012Z,0
2016-11-04T00:08:24.029Z,0
2016-11-04T00:09:24.034Z,0
2016-11-04T00:10:24.054Z,0
2016-11-04T00:11:24.075Z,0
2016-11-04T00:12:24.086Z,0
2016-11-04T00:13:24.098Z,0
2016-11-04T00:14:24.134Z,0
2016-11-04T00:15:24.151Z,0
2016-11-04T00:16:24.144Z,0
2016-11-04T00:17:24.239Z,0
2016-11-04T00:18:24.283Z,0
2016-11-04T00:19:24.186Z,0
2016-11-04T00:20:24.200Z,0
2016-11-04T00:21:24.220Z,0
2016-11-04T00:22:24.233Z,0
2016-11-04T00:23:24.260Z,0
2016-11-04T00:24:24.279Z,0
2016-11-04T00:25:24.279Z,0
2016-11-04T00:26:24.300Z,0
2016-11-04T00:27:24.314Z,0
2016-11-04T00:28:24.339Z,0
2016-11-04T00:29:24.348Z,0
2016-11-04T00:30:24.361Z,0
2016-11-04T00:31:24.376Z,0
2016-11-04T00:32:24.399Z,0
2016-11-04T00:33:24.402Z,0
2016-11-04T00:34:24.423Z,0
2016-11-04T00:35:24.443Z,0
2016-11-04T00:36:24.464Z,0
2016-11-04T00:37:24.466Z,0
2016-11-04T00:38:24.480Z,0
2016-11-04T00:39:24.503Z,0
2016-11-04T00:40:24.514Z,0
2016-11-04T00:41:24.535Z,0
2016-11-04T00:42:24.550Z,0
2016-11-04T00:43:24.594Z,0
2016-11-04T00:44:24.582Z,0
2016-11-04T00:45:24.594Z,0
2016-11-04T00:46:24.611Z,0
2016-11-04T00:47:24.613Z,0
2016-11-04T00:48:24.640Z,0
2016-11-04T00:49:24.656Z,0
2016-11-04T00:50:24.678Z,0
2016-11-04T00:51:24.678Z,0
2016-11-04T00:52:24.697Z,0
2016-11-04T00:53:24.715Z,0
2016-11-04T00:54:24.732Z,0
2016-11-04T00:55:24.754Z,0
2016-11-04T00:56:24.760Z,0
2016-11-04T00:57:24.775Z,0
2016-11-04T00:58:24.796Z,0
2016-11-04T00:59:24.804Z,0
2016-11-04T01:00:24.826Z,0
2016-11-04T01:01:24.833Z,0
2016-11-04T01:02:24.859Z,0
2016-11-04T01:03:24.866Z,0
2016-11-04T01:04:24.888Z,0
2016-11-04T01:05:24.891Z,0
2016-11-04T01:06:24.950Z,0
2016-11-04T01:07:24.916Z,0
2016-11-04T01:08:24.954Z,0
2016-11-04T01:09:24.961Z,0
2016-11-04T01:10:24.973Z,0
2016-11-04T01:11:24.983Z,0
2016-11-04T01:12:25.003Z,0
2016-11-04T01:13:25.010Z,0
2016-11-04T01:14:25.044Z,0
2016-11-04T01:15:25.054Z,0
2016-11-04T01:16:25.069Z,0
2016-11-04T01:17:25.090Z,0
2016-11-04T01:18:25.090Z,0
2016-11-04T01:19:25.116Z,0
2016-11-04T01:20:25.167Z,0
2016-11-04T01:21:25.143Z,0
2016-11-04T01:22:25.152Z,0
2016-11-04T01:23:25.177Z,0
2016-11-04T01:24:25.185Z,0
2016-11-04T01:25:25.194Z,0
2016-11-04T01:26:25.213Z,0
2016-11-04T01:27:25.236Z,0
2016-11-04T01:28:25.244Z,0
2016-11-04T01:29:25.260Z,0
2016-11-04T01:30:25.269Z,0
2016-11-04T01:31:25.297Z,0
2016-11-04T01:32:25.306Z,0
2016-11-04T01:33:25.328Z,0
2016-11-04T01:34:25.368Z,0
2016-11-04T01:35:28.390Z,0
2016-11-04T01:36:25.379Z,0
2016-11-04T01:37:25.399Z,0
2016-11-04T01:38:25.453Z,0
2016-11-04T01:39:25.432Z,0
2016-11-04T01:40:25.441Z,0
2016-11-04T01:41:25.460Z,0
2016-11-04T01:42:25.477Z,0
2016-11-04T01:43:25.486Z,0
2016-11-04T01:44:25.497Z,0
2016-11-04T01:45:25.541Z,0
2016-11-04T01:46:25.533Z,0
2016-11-04T01:47:25.555Z,0
2016-11-04T01:48:25.563Z,0
2016-11-04T01:49:25.567Z,0
2016-11-04T01:50:25.588Z,0
2016-11-04T01:51:25.614Z,0
2016-11-04T01:52:25.630Z,0
2016-11-04T01:53:25.641Z,0
2016-11-04T01:54:25.657Z,0
2016-11-04T01:55:25.673Z,0
2016-11-04T01:56:25.681Z,0
2016-11-04T01:57:25.696Z,0
2016-11-04T01:58:25.711Z,0
2016-11-04T01:59:25.727Z,0
2016-11-04T02:00:25.743Z,0
2016-11-04T02:01:25.765Z,0
2016-11-04T02:02:25.773Z,0
2016-11-04T02:03:25.808Z,0
2016-11-04T02:04:25.823Z,0
2016-11-04T02:05:25.825Z,0
2016-11-04T02:06:25.835Z,0
2016-11-04T02:07:25.856Z,0
2016-11-04T02:08:25.867Z,0
2016-11-04T02:09:25.882Z,0
2016-11-04T02:10:25.903Z,0
2016-11-04T02:11:25.915Z,0
2016-11-04T02:12:25.925Z,0
2016-11-04T02:13:25.939Z,0
2016-11-04T02:14:25.953Z,0
2016-11-04T02:15:25.979Z,0
2016-11-04T02:16:25.984Z,0
2016-11-04T02:17:25.999Z,0
2016-11-04T02:18:26.013Z,0
2016-11-04T02:19:26.031Z,0
2016-11-04T02:20:26.046Z,0
2016-11-04T02:21:26.062Z,0
2016-11-04T02:22:26.072Z,0
2016-11-04T02:23:26.093Z,0
2016-11-04T02:24:26.104Z,0
2016-11-04T02:25:26.121Z,0
2016-11-04T02:26:26.138Z,0
2016-11-04T02:27:26.152Z,0
2016-11-04T02:28:26.171Z,0
2016-11-04T02:29:26.188Z,0
2016-11-04T02:30:26.195Z,0
2016-11-04T02:31:26.216Z,0
2016-11-04T02:32:26.228Z,0
2016-11-04T02:33:26.234Z,0
2016-11-04T02:34:26.258Z,0
2016-11-04T02:35:26.586Z,0
2016-11-04T02:36:26.292Z,0
2016-11-04T02:37:26.301Z,0
2016-11-04T02:38:26.317Z,0
2016-11-04T02:39:26.320Z,0
2016-11-04T02:40:26.350Z,0
2016-11-04T02:41:26.364Z,0
2016-11-04T02:42:26.376Z,0
2016-11-04T02:43:26.397Z,0
2016-11-04T02:44:26.396Z,0
2016-11-04T02:45:26.428Z,0
2016-11-04T02:46:26.433Z,0
2016-11-04T02:47:26.473Z,0
2016-11-04T02:48:26.468Z,0
2016-11-04T02:49:26.482Z,0
2016-11-04T02:50:26.488Z,0
2016-11-04T02:51:26.506Z,0
2016-11-04T02:52:26.522Z,0
2016-11-04T02:53:26.536Z,0
2016-11-04T02:54:26.553Z,0
2016-11-04T02:55:26.567Z,0
2016-11-04T02:56:26.581Z,0
2016-11-04T02:57:26.596Z,0
2016-11-04T02:58:26.627Z,0
2016-11-04T02:59:26.628Z,0
2016-11-04T03:00:26.641Z,0
2016-11-04T03:01:26.707Z,0
2016-11-04T03:02:26.662Z,0
2016-11-04T03:03:26.682Z,0
2016-11-04T03:04:26.703Z,0
2016-11-04T03:05:26.719Z,0
2016-11-04T03:06:26.832Z,0
2016-11-04T03:07:26.832Z,0
2016-11-04T03:08:26.841Z,0
2016-11-04T03:09:26.849Z,0
2016-11-04T03:10:26.857Z,0
2016-11-04T03:11:26.807Z,0
2016-11-04T03:12:26.865Z,0
2016-11-04T03:13:26.829Z,0
2016-11-04T03:14:26.884Z,0
2016-11-04T03:15:26.892Z,0
2016-11-04T03:16:26.901Z,0
2016-11-04T03:17:26.901Z,0
2016-11-04T03:18:26.915Z,0
2016-11-04T03:19:26.978Z,0
2016-11-04T03:20:26.985Z,0
2016-11-04T03:21:27.632Z,0
2016-11-04T03:22:27.269Z,0
2016-11-04T03:23:27.613Z,0
2016-11-04T03:24:27.309Z,0
2016-11-04T03:25:27.061Z,0
2016-11-04T03:26:27.028Z,0
2016-11-04T03:27:27.042Z,0
2016-11-04T03:28:27.373Z,0
2016-11-04T03:29:27.157Z,0
2016-11-04T03:30:27.167Z,0
2016-11-04T03:31:27.420Z,0
2016-11-04T03:32:27.119Z,0
2016-11-04T03:33:27.130Z,0
2016-11-04T03:34:27.145Z,0
2016-11-04T03:35:27.157Z,0
2016-11-04T03:36:27.171Z,0
2016-11-04T03:37:27.184Z,0
2016-11-04T03:38:27.208Z,0
2016-11-04T03:39:27.216Z,0
2016-11-04T03:40:27.230Z,0
2016-11-04T03:41:27.253Z,0
2016-11-04T03:42:27.260Z,0
2016-11-04T03:43:27.598Z,0
2016-11-04T03:44:27.287Z,0
2016-11-04T03:45:27.298Z,0
2016-11-04T03:46:27.315Z,0
2016-11-04T03:47:27.335Z,0
2016-11-04T03:48:27.669Z,0
2016-11-04T03:49:27.363Z,0
2016-11-04T03:50:27.380Z,0
2016-11-04T03:51:27.386Z,0
2016-11-04T03:52:27.404Z,0
2016-11-04T03:53:27.425Z,0
2016-11-04T03:54:27.435Z,0
2016-11-04T03:55:27.453Z,0
2016-11-04T03:56:27.476Z,0
2016-11-04T03:57:27.478Z,0
2016-11-04T03:58:27.492Z,0
2016-11-04T03:59:27.512Z,0
2016-11-04T04:00:27.520Z,0
2016-11-04T04:01:27.580Z,0
2016-11-04T04:02:27.552Z,0
2016-11-04T04:03:27.566Z,0
2016-11-04T04:04:27.613Z,0
2016-11-04T04:05:27.592Z,0
2016-11-04T04:06:27.613Z,0
2016-11-04T04:07:27.630Z,0
2016-11-04T04:08:27.649Z,0
2016-11-04T04:09:27.661Z,0
2016-11-04T04:10:27.708Z,0
2016-11-04T04:11:27.696Z,0
2016-11-04T04:12:27.697Z,0
2016-11-04T04:13:27.716Z,0
2016-11-04T04:14:27.733Z,0
2016-11-04T04:15:28.098Z,0
2016-11-04T04:16:27.745Z,0
2016-11-04T04:17:27.767Z,0
2016-11-04T04:18:28.123Z,0
2016-11-04T04:19:27.801Z,0
2016-11-04T04:20:27.814Z,0
2016-11-04T04:21:27.821Z,0
2016-11-04T04:22:27.839Z,0
2016-11-04T04:23:27.848Z,0
2016-11-04T04:24:27.866Z,0
2016-11-04T04:25:27.887Z,0
2016-11-04T04:26:27.907Z,0
2016-11-04T04:27:27.915Z,0
2016-11-04T04:28:27.930Z,0
2016-11-04T04:29:27.940Z,0
2016-11-04T04:30:27.957Z,0
2016-11-04T04:31:27.964Z,0
2016-11-04T04:32:27.979Z,0
2016-11-04T04:33:27.995Z,0
2016-11-04T04:34:28.342Z,0
2016-11-04T04:35:28.031Z,0
2016-11-04T04:36:28.050Z,0
2016-11-04T04:37:28.045Z,0
2016-11-04T04:38:28.066Z,0
2016-11-04T04:39:28.082Z,0
2016-11-04T04:40:28.110Z,0
2016-11-04T04:41:28.111Z,0
2016-11-04T04:42:28.134Z,0
2016-11-04T04:43:28.148Z,0
2016-11-04T04:44:28.149Z,0
2016-11-04T04:45:28.166Z,0
2016-11-04T04:46:28.189Z,0
2016-11-04T04:47:28.203Z,0
2016-11-04T04:48:28.207Z,0
2016-11-04T04:49:28.256Z,0
2016-11-04T04:50:28.242Z,0
2016-11-04T04:51:28.262Z,0
2016-11-04T04:52:28.273Z,0
2016-11-04T04:53:28.286Z,0
2016-11-04T04:54:28.308Z,0
2016-11-04T04:55:28.311Z,0
2016-11-04T04:56:28.332Z,0
2016-11-04T04:57:28.345Z,0
2016-11-04T04:58:28.361Z,0
2016-11-04T04:59:28.375Z,0
2016-11-04T05:00:28.391Z,0
2016-11-04T05:01:28.405Z,0
2016-11-04T05:02:28.932Z,0
2016-11-04T05:03:28.435Z,0
2016-11-04T05:04:28.446Z,0
2016-11-04T05:05:28.455Z,0
2016-11-04T05:06:28.479Z,0
2016-11-04T05:07:28.497Z,0
2016-11-04T05:08:28.510Z,0
2016-11-04T05:09:28.524Z,0
2016-11-04T05:10:28.539Z,0
2016-11-04T05:11:28.539Z,0
2016-11-04T05:12:28.604Z,0
2016-11-04T05:13:28.576Z,0
2016-11-04T05:14:28.595Z,0
2016-11-04T05:15:28.596Z,0
2016-11-04T05:16:29.122Z,0
2016-11-04T05:17:28.750Z,0
2016-11-04T05:18:28.762Z,0
2016-11-04T05:19:28.655Z,0
2016-11-04T05:20:28.674Z,0
2016-11-04T05:21:28.692Z,0
2016-11-04T05:22:28.704Z,0
2016-11-04T05:23:28.727Z,0
2016-11-04T05:24:28.740Z,0
2016-11-04T05:25:28.746Z,0
2016-11-04T05:26:28.759Z,0
2016-11-04T05:27:28.775Z,0
2016-11-04T05:28:28.793Z,0
2016-11-04T05:29:28.811Z,0
2016-11-04T05:30:28.830Z,0
2016-11-04T05:31:28.835Z,0
2016-11-04T05:32:28.855Z,0
2016-11-04T05:33:28.856Z,0
2016-11-04T05:34:28.874Z,0
2016-11-04T05:35:28.909Z,0
2016-11-04T05:36:28.946Z,0
2016-11-04T05:37:28.924Z,0
2016-11-04T05:38:28.940Z,0
2016-11-04T05:39:28.958Z,0
2016-11-04T05:40:28.969Z,0
2016-11-04T05:41:28.983Z,0
2016-11-04T05:42:28.985Z,0
2016-11-04T05:43:28.999Z,0
2016-11-04T05:44:29.030Z,0
2016-11-04T05:45:29.042Z,0
2016-11-04T05:46:29.047Z,0
2016-11-04T05:47:29.068Z,0
2016-11-04T05:48:29.077Z,0
2016-11-04T05:49:29.098Z,0
2016-11-04T05:50:29.109Z,0
2016-11-04T05:51:29.131Z,4
2016-11-04T05:52:29.131Z,4
2016-11-04T05:53:29.152Z,4
2016-11-04T05:54:29.168Z,0
2016-11-04T05:55:29.181Z,0
2016-11-04T05:56:29.242Z,4
2016-11-04T05:57:29.204Z,4
2016-11-04T05:58:29.236Z,4
2016-11-04T05:59:29.226Z,4
2016-11-04T06:00:29.251Z,4
2016-11-04T06:01:29.272Z,8
2016-11-04T06:02:29.287Z,8
2016-11-04T06:03:29.308Z,8
2016-11-04T06:04:29.339Z,12
2016-11-04T06:05:29.327Z,8
2016-11-04T06:06:29.377Z,12
2016-11-04T06:07:29.357Z,16
2016-11-04T06:08:29.368Z,16
2016-11-04T06:09:29.382Z,16
2016-11-04T06:10:29.410Z,20
2016-11-04T06:11:29.403Z,16
2016-11-04T06:12:29.425Z,20
2016-11-04T06:13:29.429Z,20
2016-11-04T06:14:29.450Z,24
2016-11-04T06:15:29.469Z,20
2016-11-04T06:16:29.484Z,24
2016-11-04T06:17:29.503Z,28
2016-11-04T06:18:29.507Z,28
2016-11-04T06:19:29.524Z,28
2016-11-04T06:20:29.540Z,32
2016-11-04T06:21:29.534Z,36
2016-11-04T06:22:29.566Z,36
2016-11-04T06:23:29.584Z,40
2016-11-04T06:24:29.596Z,40
2016-11-04T06:25:29.610Z,40
2016-11-04T06:26:29.631Z,44
2016-11-04T06:27:29.636Z,48
2016-11-04T06:28:29.644Z,48
2016-11-04T06:29:29.665Z,52
2016-11-04T06:30:29.791Z,56
2016-11-04T06:31:29.816Z,60
2016-11-04T06:32:29.834Z,60
2016-11-04T06:33:29.835Z,60
2016-11-04T06:34:29.852Z,64
2016-11-04T06:35:29.757Z,64
2016-11-04T06:36:29.761Z,64
2016-11-04T06:37:29.786Z,72
2016-11-04T06:38:29.814Z,80
2016-11-04T06:39:29.816Z,84
2016-11-04T06:40:29.826Z,88
2016-11-04T06:41:29.848Z,92
2016-11-04T06:42:29.857Z,100
2016-11-04T06:43:29.857Z,108
2016-11-04T06:44:29.884Z,108
2016-11-04T06:45:29.888Z,112
2016-11-04T06:46:29.910Z,116
2016-11-04T06:47:29.931Z,116
2016-11-04T06:48:29.944Z,120
2016-11-04T06:49:29.969Z,116
2016-11-04T06:50:29.972Z,120
2016-11-04T06:51:29.970Z,120
2016-11-04T06:52:29.993Z,124
2016-11-04T06:53:30.007Z,124
2016-11-04T06:54:30.034Z,128
2016-11-04T06:55:30.040Z,132
2016-11-04T06:56:30.050Z,136
2016-11-04T06:57:30.062Z,140
2016-11-04T06:58:30.085Z,144
2016-11-04T06:59:30.121Z,152
2016-11-04T07:00:30.240Z,160
2016-11-04T07:01:30.125Z,168
2016-11-04T07:02:30.141Z,172
2016-11-04T07:03:30.159Z,180
2016-11-04T07:04:30.163Z,184
2016-11-04T07:05:30.180Z,192
2016-11-04T07:06:30.200Z,200
2016-11-04T07:07:30.201Z,204
2016-11-04T07:08:30.223Z,216
2016-11-04T07:09:30.348Z,220
2016-11-04T07:10:30.251Z,228
2016-11-04T07:11:30.266Z,228
2016-11-04T07:12:30.282Z,224
2016-11-04T07:13:30.298Z,228
2016-11-04T07:14:30.306Z,232
2016-11-04T07:15:30.322Z,236
2016-11-04T07:16:30.336Z,240
2016-11-04T07:17:30.378Z,248
2016-11-04T07:18:30.365Z,260
2016-11-04T07:19:30.380Z,280
2016-11-04T07:20:30.391Z,300
2016-11-04T07:21:30.407Z,320
2016-11-04T07:22:30.422Z,328
2016-11-04T07:23:30.470Z,336
2016-11-04T07:24:30.450Z,336
2016-11-04T07:25:30.501Z,344
2016-11-04T07:26:30.478Z,344
2016-11-04T07:27:30.613Z,356
2016-11-04T07:28:30.511Z,360
2016-11-04T07:29:30.535Z,368
2016-11-04T07:30:30.648Z,372
2016-11-04T07:31:30.543Z,376
2016-11-04T07:32:30.564Z,388
2016-11-04T07:33:30.578Z,400
2016-11-04T07:34:30.712Z,408
2016-11-04T07:35:30.608Z,412
2016-11-04T07:36:30.625Z,412
2016-11-04T07:37:30.628Z,408
2016-11-04T07:38:30.652Z,408
2016-11-04T07:39:30.708Z,404
2016-11-04T07:40:30.677Z,404
2016-11-04T07:41:30.689Z,408
2016-11-04T07:42:30.828Z,420
2016-11-04T07:43:30.717Z,440
2016-11-04T07:44:30.735Z,464
2016-11-04T07:45:30.754Z,476
2016-11-04T07:46:30.936Z,488
2016-11-04T07:47:30.771Z,488
2016-11-04T07:48:30.795Z,492
2016-11-04T07:49:30.811Z,500
2016-11-04T07:50:30.825Z,512
2016-11-04T07:51:30.830Z,516
2016-11-04T07:52:30.888Z,520
2016-11-04T07:53:30.862Z,524
2016-11-04T07:54:30.875Z,528
2016-11-04T07:55:30.907Z,528
2016-11-04T07:56:30.901Z,536
2016-11-04T07:57:30.929Z,560
2016-11-04T07:58:31.051Z,588
2016-11-04T07:59:30.964Z,620
2016-11-04T08:00:30.999Z,640
2016-11-04T08:01:30.978Z,664
2016-11-04T08:02:31.033Z,668
2016-11-04T08:03:31.016Z,664
2016-11-04T08:04:31.023Z,656
2016-11-04T08:05:31.046Z,656
2016-11-04T08:06:31.051Z,660
2016-11-04T08:07:31.069Z,668
2016-11-04T08:08:31.089Z,672
2016-11-04T08:09:31.099Z,664
2016-11-04T08:10:31.119Z,652
2016-11-04T08:11:31.123Z,632
2016-11-04T08:12:31.132Z,608
2016-11-04T08:13:31.189Z,596
2016-11-04T08:14:31.167Z,600
2016-11-04T08:15:31.230Z,612
2016-11-04T08:16:31.192Z,616
2016-11-04T08:17:31.216Z,608
2016-11-04T08:18:31.227Z,592
2016-11-04T08:19:31.286Z,584
2016-11-04T08:20:31.261Z,576
2016-11-04T08:21:31.268Z,568
2016-11-04T08:22:31.276Z,552
2016-11-04T08:23:31.302Z,540
2016-11-04T08:24:31.304Z,532
2016-11-04T08:25:31.337Z,524
2016-11-04T08:26:31.653Z,520
2016-11-04T08:27:31.359Z,520
2016-11-04T08:28:31.380Z,532
2016-11-04T08:29:31.475Z,548
2016-11-04T08:30:31.438Z,564
2016-11-04T08:31:31.420Z,576
2016-11-04T08:32:31.438Z,588
2016-11-04T08:33:31.561Z,604
2016-11-04T08:34:31.574Z,620
2016-11-04T08:35:31.500Z,644
2016-11-04T08:36:31.494Z,664
2016-11-04T08:37:31.505Z,688
2016-11-04T08:38:31.520Z,708
2016-11-04T08:39:31.655Z,732
2016-11-04T08:40:31.551Z,744
2016-11-04T08:41:31.561Z,748
2016-11-04T08:42:31.695Z,756
2016-11-04T08:43:31.590Z,752
2016-11-04T08:44:31.736Z,756
2016-11-04T08:45:31.673Z,756
2016-11-04T08:46:31.639Z,756
2016-11-04T08:47:31.663Z,764
2016-11-04T08:48:31.667Z,784
2016-11-04T08:49:31.684Z,816
2016-11-04T08:50:31.817Z,876
2016-11-04T08:51:32.032Z,940
2016-11-04T08:52:31.724Z,1000
2016-11-04T08:53:31.742Z,1028
2016-11-04T08:54:31.767Z,1036
2016-11-04T08:55:31.769Z,1032
2016-11-04T08:56:31.794Z,1020
2016-11-04T08:57:31.799Z,1020
2016-11-04T08:58:31.901Z,1036
2016-11-04T08:59:31.950Z,1068
2016-11-04T09:00:31.843Z,1100
2016-11-04T09:01:31.850Z,1116
2016-11-04T09:02:31.965Z,1140
2016-11-04T09:03:31.894Z,1164
2016-11-04T09:04:32.014Z,1208
2016-11-04T09:05:32.036Z,1228
2016-11-04T09:06:32.101Z,1220
2016-11-04T09:07:31.953Z,1204
2016-11-04T09:08:32.082Z,1176
2016-11-04T09:09:31.977Z,1136
2016-11-04T09:10:31.984Z,1116
2016-11-04T09:11:32.022Z,1108
2016-11-04T09:12:32.022Z,1116
2016-11-04T09:13:32.038Z,1136
2016-11-04T09:14:32.381Z,1172
2016-11-04T09:15:32.062Z,1200
2016-11-04T09:16:32.085Z,1196
2016-11-04T09:17:32.092Z,1180
2016-11-04T09:18:32.109Z,1172
2016-11-04T09:19:32.129Z,1168
2016-11-04T09:20:32.138Z,1176
2016-11-04T09:21:32.150Z,1200
2016-11-04T09:22:32.176Z,1212
2016-11-04T09:23:32.191Z,1180
2016-11-04T09:24:32.313Z,1152
2016-11-04T09:25:32.214Z,1128
2016-11-04T09:26:32.348Z,1100
2016-11-04T09:27:32.237Z,1076
2016-11-04T09:28:32.263Z,1064
2016-11-04T09:29:32.290Z,1072
2016-11-04T09:30:32.411Z,1088
2016-11-04T09:31:32.428Z,1104
2016-11-04T09:32:32.326Z,1116
2016-11-04T09:33:32.349Z,1124
2016-11-04T09:34:32.365Z,1144
2016-11-04T09:35:32.420Z,1172
2016-11-04T09:36:32.395Z,1216
2016-11-04T09:37:32.404Z,1252
2016-11-04T09:38:32.415Z,1284
2016-11-04T09:39:32.435Z,1308
2016-11-04T09:40:32.497Z,1344
2016-11-04T09:41:32.457Z,1384
2016-11-04T09:42:32.479Z,1408
2016-11-04T09:43:32.490Z,1404
2016-11-04T09:44:32.514Z,1404
2016-11-04T09:45:32.531Z,1412
2016-11-04T09:46:32.539Z,1412
2016-11-04T09:47:32.559Z,1424
2016-11-04T09:48:32.569Z,1440
2016-11-04T09:49:32.588Z,1448
2016-11-04T09:50:32.597Z,1440
2016-11-04T09:51:32.625Z,1412
2016-11-04T09:52:32.641Z,1400
2016-11-04T09:53:32.654Z,1388
2016-11-04T09:54:32.668Z,1392
2016-11-04T09:55:32.679Z,1412
2016-11-04T09:56:32.693Z,1436
2016-11-04T09:57:32.711Z,1412
2016-11-04T09:58:32.729Z,1364
2016-11-04T09:59:32.742Z,1344
2016-11-04T10:00:32.768Z,1340
2016-11-04T10:01:32.776Z,1356
2016-11-04T10:02:32.794Z,1384
2016-11-04T10:03:32.807Z,1404
2016-11-04T10:04:32.808Z,1416
2016-11-04T10:05:32.833Z,1408
2016-11-04T10:06:32.954Z,1388
2016-11-04T10:07:32.872Z,1388
2016-11-04T10:08:33.004Z,1364
2016-11-04T10:09:32.998Z,1312
2016-11-04T10:10:32.952Z,1260
2016-11-04T10:11:32.961Z,1216
2016-11-04T10:12:32.970Z,1180
2016-11-04T10:13:32.961Z,1140
2016-11-04T10:14:32.978Z,1096
2016-11-04T10:15:33.302Z,1096
2016-11-04T10:16:33.012Z,1120
2016-11-04T10:17:33.031Z,1136
2016-11-04T10:18:33.045Z,1140
2016-11-04T10:19:33.058Z,1124
2016-11-04T10:20:33.069Z,1116
2016-11-04T10:21:33.084Z,1100
2016-11-04T10:22:33.100Z,1060
2016-11-04T10:23:33.122Z,1044
2016-11-04T10:24:33.132Z,1064
2016-11-04T10:25:33.256Z,1100
2016-11-04T10:26:33.265Z,1156
2016-11-04T10:27:33.182Z,1164
2016-11-04T10:28:33.299Z,1132
2016-11-04T10:29:33.308Z,1088
2016-11-04T10:30:33.317Z,1060
2016-11-04T10:31:33.331Z,1024
2016-11-04T10:32:33.335Z,980
2016-11-04T10:33:33.633Z,964
2016-11-04T10:34:33.342Z,956
2016-11-04T10:35:33.361Z,952
2016-11-04T10:36:33.359Z,972
2016-11-04T10:37:33.369Z,1000
2016-11-04T10:38:33.429Z,1024
2016-11-04T10:39:33.437Z,1060
2016-11-04T10:40:33.443Z,1088
2016-11-04T10:41:33.457Z,1088
2016-11-04T10:42:33.453Z,1060
2016-11-04T10:43:33.460Z,1016
2016-11-04T10:44:33.473Z,980
2016-11-04T10:45:33.480Z,928
2016-11-04T10:46:33.809Z,884
2016-11-04T10:47:33.504Z,832
2016-11-04T10:48:33.612Z,760
2016-11-04T10:49:33.619Z,744
2016-11-04T10:50:33.636Z,744
2016-11-04T10:51:33.637Z,736
2016-11-04T10:52:33.587Z,744
2016-11-04T10:53:33.589Z,772
2016-11-04T10:54:33.620Z,788
2016-11-04T10:55:33.632Z,816
2016-11-04T10:56:33.702Z,860
2016-11-04T10:57:33.670Z,928
2016-11-04T10:58:33.673Z,1000
2016-11-04T10:59:33.706Z,1044
2016-11-04T11:00:33.706Z,1056
2016-11-04T11:01:33.735Z,1076
2016-11-04T11:02:33.746Z,1100
2016-11-04T11:03:33.773Z,1112
2016-11-04T11:04:33.766Z,1112
2016-11-04T11:05:33.795Z,1084
2016-11-04T11:06:33.807Z,1060
2016-11-04T11:07:33.824Z,1068
2016-11-04T11:08:33.842Z,1116
2016-11-04T11:09:33.856Z,1160
2016-11-04T11:10:33.869Z,1164
2016-11-04T11:11:33.889Z,1124
2016-11-04T11:12:34.247Z,1060
2016-11-04T11:13:33.920Z,996
2016-11-04T11:14:33.940Z,992
2016-11-04T11:15:34.051Z,1008
2016-11-04T11:16:33.962Z,988
2016-11-04T11:17:33.989Z,964
2016-11-04T11:18:34.053Z,928
2016-11-04T11:19:34.020Z,912
2016-11-04T11:20:34.077Z,892
2016-11-04T11:21:34.046Z,868
2016-11-04T11:22:34.094Z,844
2016-11-04T11:23:34.079Z,820
2016-11-04T11:24:34.111Z,780
2016-11-04T11:25:34.210Z,728
2016-11-04T11:26:34.219Z,700
2016-11-04T11:27:34.156Z,676
2016-11-04T11:28:34.206Z,648
2016-11-04T11:29:34.264Z,632
2016-11-04T11:30:34.195Z,620
2016-11-04T11:31:34.215Z,600
2016-11-04T11:32:34.241Z,568
2016-11-04T11:33:34.406Z,560
2016-11-04T11:34:34.453Z,588
2016-11-04T11:35:34.385Z,608
2016-11-04T11:36:34.297Z,608
2016-11-04T11:37:34.327Z,596
2016-11-04T11:38:34.329Z,580
2016-11-04T11:39:34.486Z,572
2016-11-04T11:40:34.479Z,572
2016-11-04T11:41:34.390Z,592
2016-11-04T11:42:34.404Z,600
2016-11-04T11:43:34.522Z,612
2016-11-04T11:44:34.412Z,624
2016-11-04T11:45:34.441Z,644
2016-11-04T11:46:34.455Z,656
2016-11-04T11:47:34.595Z,660
2016-11-04T11:48:34.504Z,632
2016-11-04T11:49:34.507Z,580
2016-11-04T11:50:34.529Z,524
2016-11-04T11:51:34.661Z,516
2016-11-04T11:52:34.617Z,540
2016-11-04T11:53:34.668Z,588
2016-11-04T11:54:34.674Z,656
2016-11-04T11:55:34.603Z,716
2016-11-04T11:56:34.620Z,760
2016-11-04T11:57:34.641Z,804
2016-11-04T11:58:34.653Z,844
2016-11-04T11:59:34.780Z,884
2016-11-04T12:00:34.789Z,956
2016-11-04T12:01:34.705Z,1024
2016-11-04T12:02:34.724Z,1060
2016-11-04T12:03:34.732Z,1076
2016-11-04T12:04:34.750Z,1032
2016-11-04T12:05:34.767Z,972
2016-11-04T12:06:34.885Z,956
2016-11-04T12:07:34.807Z,964
2016-11-04T12:08:35.021Z,988
2016-11-04T12:09:34.827Z,1008
2016-11-04T12:10:34.845Z,1016
2016-11-04T12:11:34.880Z,1004
2016-11-04T12:12:34.888Z,952
2016-11-04T12:13:35.021Z,908
2016-11-04T12:14:34.911Z,880
2016-11-04T12:15:34.933Z,888
2016-11-04T12:16:34.935Z,936
2016-11-04T12:17:34.963Z,984
2016-11-04T12:18:34.980Z,1012
2016-11-04T12:19:35.002Z,1028
2016-11-04T12:20:35.006Z,1036
2016-11-04T12:21:35.029Z,1080
2016-11-04T12:22:35.047Z,1152
2016-11-04T12:23:35.181Z,1220
2016-11-04T12:24:35.210Z,1244
2016-11-04T12:25:35.091Z,1276
2016-11-04T12:26:35.306Z,1336
2016-11-04T12:27:35.126Z,1288
2016-11-04T12:28:35.250Z,1196
2016-11-04T12:29:35.246Z,1176
2016-11-04T12:30:35.183Z,1180
2016-11-04T12:31:35.309Z,1204
2016-11-04T12:32:35.371Z,1236
2016-11-04T12:33:35.221Z,1284
2016-11-04T12:34:35.248Z,1304
2016-11-04T12:35:35.377Z,1304
2016-11-04T12:36:35.379Z,1304
2016-11-04T12:37:35.401Z,1200
2016-11-04T12:38:35.413Z,1032
2016-11-04T12:39:35.338Z,924
2016-11-04T12:40:35.342Z,944
2016-11-04T12:41:35.543Z,992
2016-11-04T12:42:35.372Z,1016
2016-11-04T12:43:35.491Z,1000
2016-11-04T12:44:35.418Z,988
2016-11-04T12:45:35.502Z,996
2016-11-04T12:46:35.441Z,1028
2016-11-04T12:47:35.570Z,1044
2016-11-04T12:48:35.471Z,996
2016-11-04T12:49:35.483Z,976
2016-11-04T12:50:35.619Z,980
2016-11-04T12:51:35.527Z,988
2016-11-04T12:52:35.541Z,992
2016-11-04T12:53:35.555Z,980
2016-11-04T12:54:35.900Z,964
2016-11-04T12:55:35.664Z,948
2016-11-04T12:56:35.636Z,932
2016-11-04T12:57:35.641Z,936
2016-11-04T12:58:35.748Z,896
2016-11-04T12:59:35.897Z,872
2016-11-04T13:00:35.736Z,880
2016-11-04T13:01:35.688Z,904
2016-11-04T13:02:35.707Z,936
2016-11-04T13:03:35.720Z,956
2016-11-04T13:04:35.734Z,944
2016-11-04T13:05:35.763Z,960
2016-11-04T13:06:35.778Z,964
2016-11-04T13:07:35.797Z,944
2016-11-04T13:08:35.808Z,932
2016-11-04T13:09:35.823Z,964
2016-11-04T13:10:35.849Z,1004
2016-11-04T13:11:35.854Z,996
2016-11-04T13:12:35.882Z,964
2016-11-04T13:13:35.891Z,944
2016-11-04T13:14:36.031Z,924
2016-11-04T13:15:35.935Z,908
2016-11-04T13:16:35.944Z,876
2016-11-04T13:17:36.073Z,848
2016-11-04T13:18:35.972Z,828
2016-11-04T13:19:36.094Z,828
2016-11-04T13:20:36.016Z,848
2016-11-04T13:21:36.025Z,856
2016-11-04T13:22:36.048Z,860
2016-11-04T13:23:36.158Z,832
2016-11-04T13:24:36.082Z,736
2016-11-04T13:25:36.453Z,644
2016-11-04T13:26:36.111Z,600
2016-11-04T13:27:36.129Z,576
2016-11-04T13:28:36.357Z,552
2016-11-04T13:29:36.276Z,528
2016-11-04T13:30:36.178Z,520
2016-11-04T13:31:36.188Z,524
2016-11-04T13:32:36.203Z,540
2016-11-04T13:33:36.230Z,556
2016-11-04T13:34:36.255Z,568
2016-11-04T13:35:36.255Z,580
2016-11-04T13:36:36.276Z,592
2016-11-04T13:37:36.312Z,576
2016-11-04T13:38:36.426Z,544
2016-11-04T13:39:36.434Z,540
2016-11-04T13:40:36.747Z,588
2016-11-04T13:41:36.468Z,696
2016-11-04T13:42:36.463Z,800
2016-11-04T13:43:36.503Z,820
2016-11-04T13:44:36.415Z,776
2016-11-04T13:45:36.438Z,712
2016-11-04T13:46:36.450Z,712
2016-11-04T13:47:36.477Z,716
2016-11-04T13:48:36.492Z,692
2016-11-04T13:49:36.609Z,632
2016-11-04T13:50:36.620Z,584
2016-11-04T13:51:36.564Z,564
2016-11-04T13:52:36.545Z,552
2016-11-04T13:53:36.573Z,528
2016-11-04T13:54:36.573Z,532
2016-11-04T13:55:36.594Z,608
2016-11-04T13:56:36.619Z,712
2016-11-04T13:57:36.627Z,720
2016-11-04T13:58:36.687Z,668
2016-11-04T13:59:36.716Z,636
2016-11-04T14:00:36.689Z,584
2016-11-04T14:01:36.699Z,540
2016-11-04T14:02:36.720Z,516
2016-11-04T14:03:36.736Z,492
2016-11-04T14:04:36.749Z,488
2016-11-04T14:05:36.768Z,520
2016-11-04T14:06:37.300Z,560
2016-11-04T14:07:36.800Z,564